sensor_id;sensor_type;location;lat;lon;timestamp;P1;durP1;ratioP1;P2;durP2;ratioP2
52668;SDS011;59898;52.786;6.892;2022-08-19T00:01:53;10.85;;;7.65;;
52668;SDS011;59898;52.786;6.892;2022-08-19T00:05:15;11.18;;;8.15;;
52668;SDS011;59898;52.786;6.892;2022-08-19T00:08:37;10.17;;;9.00;;
52668;SDS011;59898;52.786;6.892;2022-08-19T00:11:58;10.48;;;9.35;;
52668;SDS011;59898;52.786;6.892;2022-08-19T00:15:20;11.18;;;8.00;;
52668;SDS011;59898;52.786;6.892;2022-08-19T00:18:42;10.90;;;8.60;;
52668;SDS011;59898;52.786;6.892;2022-08-19T00:22:03;9.88;;;7.40;;
52668;SDS011;59898;52.786;6.892;2022-08-19T00:25:25;8.90;;;7.35;;
52668;SDS011;59898;52.786;6.892;2022-08-19T00:28:46;8.77;;;7.88;;
52668;SDS011;59898;52.786;6.892;2022-08-19T00:32:07;12.15;;;9.13;;
52668;SDS011;59898;52.786;6.892;2022-08-19T00:35:27;10.48;;;8.02;;
52668;SDS011;59898;52.786;6.892;2022-08-19T00:38:48;11.60;;;8.57;;
52668;SDS011;59898;52.786;6.892;2022-08-19T00:42:11;11.55;;;8.50;;
52668;SDS011;59898;52.786;6.892;2022-08-19T00:45:34;13.10;;;9.38;;
52668;SDS011;59898;52.786;6.892;2022-08-19T00:48:56;13.05;;;8.85;;
52668;SDS011;59898;52.786;6.892;2022-08-19T00:52:22;10.18;;;8.52;;
52668;SDS011;59898;52.786;6.892;2022-08-19T00:55:50;13.00;;;10.45;;
52668;SDS011;59898;52.786;6.892;2022-08-19T00:59:13;14.40;;;9.88;;
52668;SDS011;59898;52.786;6.892;2022-08-19T01:02:35;10.27;;;8.45;;
52668;SDS011;59898;52.786;6.892;2022-08-19T01:05:55;13.05;;;10.38;;
52668;SDS011;59898;52.786;6.892;2022-08-19T01:09:16;12.77;;;11.18;;
52668;SDS011;59898;52.786;6.892;2022-08-19T01:12:38;12.90;;;10.35;;
52668;SDS011;59898;52.786;6.892;2022-08-19T01:16:00;10.63;;;9.10;;
52668;SDS011;59898;52.786;6.892;2022-08-19T01:19:31;13.07;;;9.27;;
52668;SDS011;59898;52.786;6.892;2022-08-19T01:22:57;12.30;;;9.13;;
52668;SDS011;59898;52.786;6.892;2022-08-19T01:26:20;11.48;;;10.27;;
52668;SDS011;59898;52.786;6.892;2022-08-19T01:29:42;12.85;;;9.73;;
52668;SDS011;59898;52.786;6.892;2022-08-19T01:33:04;11.32;;;10.07;;
52668;SDS011;59898;52.786;6.892;2022-08-19T01:36:33;13.00;;;9.13;;
52668;SDS011;59898;52.786;6.892;2022-08-19T01:40:02;17.08;;;10.50;;
52668;SDS011;59898;52.786;6.892;2022-08-19T01:43:23;12.02;;;8.57;;
52668;SDS011;59898;52.786;6.892;2022-08-19T01:46:44;11.80;;;8.70;;
52668;SDS011;59898;52.786;6.892;2022-08-19T01:50:07;15.40;;;10.88;;
52668;SDS011;59898;52.786;6.892;2022-08-19T01:53:30;13.20;;;10.13;;
52668;SDS011;59898;52.786;6.892;2022-08-19T01:56:51;11.70;;;9.88;;
52668;SDS011;59898;52.786;6.892;2022-08-19T02:00:15;14.07;;;10.82;;
52668;SDS011;59898;52.786;6.892;2022-08-19T02:03:37;12.20;;;10.63;;
52668;SDS011;59898;52.786;6.892;2022-08-19T02:06:58;12.35;;;9.38;;
52668;SDS011;59898;52.786;6.892;2022-08-19T02:10:20;16.08;;;11.88;;
52668;SDS011;59898;52.786;6.892;2022-08-19T02:13:41;15.27;;;12.07;;
52668;SDS011;59898;52.786;6.892;2022-08-19T02:17:02;16.40;;;12.43;;
52668;SDS011;59898;52.786;6.892;2022-08-19T02:20:23;15.90;;;13.15;;
52668;SDS011;59898;52.786;6.892;2022-08-19T02:23:44;18.52;;;12.20;;
52668;SDS011;59898;52.786;6.892;2022-08-19T02:27:05;15.77;;;11.23;;
52668;SDS011;59898;52.786;6.892;2022-08-19T02:30:26;14.32;;;12.30;;
52668;SDS011;59898;52.786;6.892;2022-08-19T02:33:47;15.40;;;12.38;;
52668;SDS011;59898;52.786;6.892;2022-08-19T02:37:08;18.08;;;12.65;;
52668;SDS011;59898;52.786;6.892;2022-08-19T02:40:49;17.02;;;12.80;;
52668;SDS011;59898;52.786;6.892;2022-08-19T02:44:12;17.50;;;13.00;;
52668;SDS011;59898;52.786;6.892;2022-08-19T02:47:33;17.90;;;12.68;;
52668;SDS011;59898;52.786;6.892;2022-08-19T02:50:54;14.60;;;13.05;;
52668;SDS011;59898;52.786;6.892;2022-08-19T02:54:15;18.52;;;13.02;;
52668;SDS011;59898;52.786;6.892;2022-08-19T02:57:35;15.43;;;11.40;;
52668;SDS011;59898;52.786;6.892;2022-08-19T03:00:56;13.35;;;11.80;;
52668;SDS011;59898;52.786;6.892;2022-08-19T03:04:17;16.15;;;12.15;;
52668;SDS011;59898;52.786;6.892;2022-08-19T03:07:39;13.75;;;12.13;;
52668;SDS011;59898;52.786;6.892;2022-08-19T03:11:00;14.75;;;11.45;;
52668;SDS011;59898;52.786;6.892;2022-08-19T03:14:20;14.00;;;11.68;;
52668;SDS011;59898;52.786;6.892;2022-08-19T03:17:41;16.35;;;12.68;;
52668;SDS011;59898;52.786;6.892;2022-08-19T03:21:02;13.57;;;11.35;;
52668;SDS011;59898;52.786;6.892;2022-08-19T03:24:23;16.80;;;12.02;;
52668;SDS011;59898;52.786;6.892;2022-08-19T03:27:44;16.80;;;12.20;;
52668;SDS011;59898;52.786;6.892;2022-08-19T03:31:12;18.42;;;10.55;;
52668;SDS011;59898;52.786;6.892;2022-08-19T03:34:34;13.77;;;12.00;;
52668;SDS011;59898;52.786;6.892;2022-08-19T03:37:58;14.95;;;11.25;;
52668;SDS011;59898;52.786;6.892;2022-08-19T03:41:20;19.20;;;13.50;;
52668;SDS011;59898;52.786;6.892;2022-08-19T03:44:43;16.95;;;12.98;;
52668;SDS011;59898;52.786;6.892;2022-08-19T03:48:04;15.45;;;11.85;;
52668;SDS011;59898;52.786;6.892;2022-08-19T03:51:32;17.52;;;13.02;;
52668;SDS011;59898;52.786;6.892;2022-08-19T03:54:55;15.65;;;12.63;;
52668;SDS011;59898;52.786;6.892;2022-08-19T03:58:16;17.10;;;13.05;;
52668;SDS011;59898;52.786;6.892;2022-08-19T04:01:36;14.55;;;11.13;;
52668;SDS011;59898;52.786;6.892;2022-08-19T04:04:57;16.95;;;13.30;;
52668;SDS011;59898;52.786;6.892;2022-08-19T04:08:18;15.02;;;11.48;;
52668;SDS011;59898;52.786;6.892;2022-08-19T04:11:41;16.27;;;12.83;;
52668;SDS011;59898;52.786;6.892;2022-08-19T04:15:15;15.65;;;12.63;;
52668;SDS011;59898;52.786;6.892;2022-08-19T04:18:37;16.13;;;12.88;;
52668;SDS011;59898;52.786;6.892;2022-08-19T04:21:58;15.20;;;12.98;;
52668;SDS011;59898;52.786;6.892;2022-08-19T04:25:19;12.27;;;10.98;;
52668;SDS011;59898;52.786;6.892;2022-08-19T04:28:40;15.32;;;11.43;;
52668;SDS011;59898;52.786;6.892;2022-08-19T04:32:01;13.10;;;9.02;;
52668;SDS011;59898;52.786;6.892;2022-08-19T04:35:22;10.23;;;7.55;;
52668;SDS011;59898;52.786;6.892;2022-08-19T04:38:43;18.80;;;15.10;;
52668;SDS011;59898;52.786;6.892;2022-08-19T04:42:03;12.32;;;9.20;;
52668;SDS011;59898;52.786;6.892;2022-08-19T04:45:43;9.63;;;7.82;;
52668;SDS011;59898;52.786;6.892;2022-08-19T04:49:05;9.97;;;8.67;;
52668;SDS011;59898;52.786;6.892;2022-08-19T04:52:26;8.43;;;6.97;;
52668;SDS011;59898;52.786;6.892;2022-08-19T04:55:47;9.25;;;7.45;;
52668;SDS011;59898;52.786;6.892;2022-08-19T04:59:08;9.82;;;7.82;;
52668;SDS011;59898;52.786;6.892;2022-08-19T05:02:28;10.85;;;6.60;;
52668;SDS011;59898;52.786;6.892;2022-08-19T05:05:49;11.77;;;8.85;;
52668;SDS011;59898;52.786;6.892;2022-08-19T05:09:10;8.48;;;6.70;;
52668;SDS011;59898;52.786;6.892;2022-08-19T05:12:30;7.88;;;6.32;;
52668;SDS011;59898;52.786;6.892;2022-08-19T05:15:58;8.05;;;6.63;;
52668;SDS011;59898;52.786;6.892;2022-08-19T05:19:19;9.73;;;8.15;;
52668;SDS011;59898;52.786;6.892;2022-08-19T05:22:58;10.27;;;6.95;;
52668;SDS011;59898;52.786;6.892;2022-08-19T05:26:19;9.85;;;6.88;;
52668;SDS011;59898;52.786;6.892;2022-08-19T05:29:39;7.03;;;6.28;;
52668;SDS011;59898;52.786;6.892;2022-08-19T05:33:00;10.23;;;7.43;;
52668;SDS011;59898;52.786;6.892;2022-08-19T05:36:21;8.43;;;7.50;;
52668;SDS011;59898;52.786;6.892;2022-08-19T05:39:41;9.35;;;7.57;;
52668;SDS011;59898;52.786;6.892;2022-08-19T05:43:03;10.32;;;9.25;;
52668;SDS011;59898;52.786;6.892;2022-08-19T05:46:25;13.82;;;11.55;;
52668;SDS011;59898;52.786;6.892;2022-08-19T05:49:46;15.80;;;12.77;;
52668;SDS011;59898;52.786;6.892;2022-08-19T05:53:09;17.35;;;13.63;;
52668;SDS011;59898;52.786;6.892;2022-08-19T05:56:30;16.58;;;13.77;;
52668;SDS011;59898;52.786;6.892;2022-08-19T05:59:51;15.27;;;13.15;;
52668;SDS011;59898;52.786;6.892;2022-08-19T06:03:13;18.27;;;14.47;;
52668;SDS011;59898;52.786;6.892;2022-08-19T06:06:34;20.60;;;16.30;;
52668;SDS011;59898;52.786;6.892;2022-08-19T06:09:55;18.88;;;15.60;;
52668;SDS011;59898;52.786;6.892;2022-08-19T06:13:16;14.98;;;11.45;;
52668;SDS011;59898;52.786;6.892;2022-08-19T06:20:02;21.10;;;15.50;;
52668;SDS011;59898;52.786;6.892;2022-08-19T06:23:24;21.63;;;16.88;;
52668;SDS011;59898;52.786;6.892;2022-08-19T06:26:46;19.40;;;15.80;;
52668;SDS011;59898;52.786;6.892;2022-08-19T06:30:08;20.67;;;16.73;;
52668;SDS011;59898;52.786;6.892;2022-08-19T06:33:32;19.08;;;16.02;;
52668;SDS011;59898;52.786;6.892;2022-08-19T06:36:53;21.70;;;15.65;;
52668;SDS011;59898;52.786;6.892;2022-08-19T06:40:14;20.38;;;15.15;;
52668;SDS011;59898;52.786;6.892;2022-08-19T06:43:35;18.77;;;15.85;;
52668;SDS011;59898;52.786;6.892;2022-08-19T06:46:56;17.00;;;14.48;;
52668;SDS011;59898;52.786;6.892;2022-08-19T06:50:17;15.73;;;12.77;;
52668;SDS011;59898;52.786;6.892;2022-08-19T06:53:38;17.80;;;15.00;;
52668;SDS011;59898;52.786;6.892;2022-08-19T06:57:00;15.93;;;11.85;;
52668;SDS011;59898;52.786;6.892;2022-08-19T07:00:22;13.55;;;10.98;;
52668;SDS011;59898;52.786;6.892;2022-08-19T07:03:42;14.85;;;11.18;;
52668;SDS011;59898;52.786;6.892;2022-08-19T07:07:07;9.95;;;6.63;;
52668;SDS011;59898;52.786;6.892;2022-08-19T07:10:31;8.48;;;6.15;;
52668;SDS011;59898;52.786;6.892;2022-08-19T07:13:52;8.48;;;5.72;;
52668;SDS011;59898;52.786;6.892;2022-08-19T07:17:14;8.25;;;7.28;;
52668;SDS011;59898;52.786;6.892;2022-08-19T07:20:35;6.93;;;5.75;;
52668;SDS011;59898;52.786;6.892;2022-08-19T07:23:58;13.05;;;10.75;;
52668;SDS011;59898;52.786;6.892;2022-08-19T07:27:19;8.95;;;6.75;;
52668;SDS011;59898;52.786;6.892;2022-08-19T07:30:40;7.80;;;5.65;;
52668;SDS011;59898;52.786;6.892;2022-08-19T07:34:02;11.38;;;8.48;;
52668;SDS011;59898;52.786;6.892;2022-08-19T07:37:27;8.68;;;5.65;;
52668;SDS011;59898;52.786;6.892;2022-08-19T07:40:48;7.38;;;5.05;;
52668;SDS011;59898;52.786;6.892;2022-08-19T07:44:11;6.65;;;5.43;;
52668;SDS011;59898;52.786;6.892;2022-08-19T07:47:33;7.93;;;5.97;;
52668;SDS011;59898;52.786;6.892;2022-08-19T07:50:55;7.75;;;5.80;;
52668;SDS011;59898;52.786;6.892;2022-08-19T07:54:17;8.65;;;6.63;;
52668;SDS011;59898;52.786;6.892;2022-08-19T07:57:39;9.93;;;6.95;;
52668;SDS011;59898;52.786;6.892;2022-08-19T08:01:00;14.65;;;11.88;;
52668;SDS011;59898;52.786;6.892;2022-08-19T08:08:02;9.25;;;6.28;;
52668;SDS011;59898;52.786;6.892;2022-08-19T08:11:42;10.63;;;7.10;;
52668;SDS011;59898;52.786;6.892;2022-08-19T08:15:16;11.30;;;9.35;;
52668;SDS011;59898;52.786;6.892;2022-08-19T08:18:38;10.33;;;6.50;;
52668;SDS011;59898;52.786;6.892;2022-08-19T08:22:02;11.07;;;8.35;;
52668;SDS011;59898;52.786;6.892;2022-08-19T08:25:25;10.75;;;7.90;;
52668;SDS011;59898;52.786;6.892;2022-08-19T08:28:46;9.70;;;7.03;;
52668;SDS011;59898;52.786;6.892;2022-08-19T08:32:08;8.98;;;7.28;;
52668;SDS011;59898;52.786;6.892;2022-08-19T08:35:28;9.40;;;8.38;;
52668;SDS011;59898;52.786;6.892;2022-08-19T08:38:49;10.40;;;8.60;;
52668;SDS011;59898;52.786;6.892;2022-08-19T08:42:13;12.10;;;7.97;;
52668;SDS011;59898;52.786;6.892;2022-08-19T08:45:51;10.20;;;7.70;;
52668;SDS011;59898;52.786;6.892;2022-08-19T08:52:50;8.52;;;7.60;;
52668;SDS011;59898;52.786;6.892;2022-08-19T08:56:15;7.93;;;6.97;;
52668;SDS011;59898;52.786;6.892;2022-08-19T08:59:38;15.30;;;12.70;;
52668;SDS011;59898;52.786;6.892;2022-08-19T09:03:01;14.38;;;12.88;;
52668;SDS011;59898;52.786;6.892;2022-08-19T09:10:44;10.20;;;8.52;;
52668;SDS011;59898;52.786;6.892;2022-08-19T09:14:16;10.77;;;9.15;;
52668;SDS011;59898;52.786;6.892;2022-08-19T09:17:40;11.88;;;10.05;;
52668;SDS011;59898;52.786;6.892;2022-08-19T09:21:01;11.00;;;8.65;;
52668;SDS011;59898;52.786;6.892;2022-08-19T09:24:22;13.25;;;11.85;;
52668;SDS011;59898;52.786;6.892;2022-08-19T09:27:43;8.52;;;6.80;;
52668;SDS011;59898;52.786;6.892;2022-08-19T09:31:04;9.35;;;8.30;;
52668;SDS011;59898;52.786;6.892;2022-08-19T09:34:25;10.07;;;8.52;;
52668;SDS011;59898;52.786;6.892;2022-08-19T09:37:46;10.10;;;7.28;;
52668;SDS011;59898;52.786;6.892;2022-08-19T09:41:07;9.43;;;7.47;;
52668;SDS011;59898;52.786;6.892;2022-08-19T09:44:33;7.10;;;6.40;;
52668;SDS011;59898;52.786;6.892;2022-08-19T09:47:54;12.60;;;11.30;;
52668;SDS011;59898;52.786;6.892;2022-08-19T09:51:17;8.77;;;7.88;;
52668;SDS011;59898;52.786;6.892;2022-08-19T09:54:40;9.93;;;6.43;;
52668;SDS011;59898;52.786;6.892;2022-08-19T09:58:01;9.50;;;7.82;;
52668;SDS011;59898;52.786;6.892;2022-08-19T10:01:24;9.35;;;8.35;;
52668;SDS011;59898;52.786;6.892;2022-08-19T10:04:46;5.82;;;5.22;;
52668;SDS011;59898;52.786;6.892;2022-08-19T10:08:27;6.05;;;5.32;;
52668;SDS011;59898;52.786;6.892;2022-08-19T10:11:49;7.68;;;5.80;;
52668;SDS011;59898;52.786;6.892;2022-08-19T10:15:10;6.25;;;5.65;;
52668;SDS011;59898;52.786;6.892;2022-08-19T10:18:32;8.75;;;6.95;;
52668;SDS011;59898;52.786;6.892;2022-08-19T10:21:54;6.13;;;4.97;;
52668;SDS011;59898;52.786;6.892;2022-08-19T10:25:14;5.82;;;5.05;;
52668;SDS011;59898;52.786;6.892;2022-08-19T10:28:36;8.63;;;7.57;;
52668;SDS011;59898;52.786;6.892;2022-08-19T10:31:58;6.65;;;5.93;;
52668;SDS011;59898;52.786;6.892;2022-08-19T10:35:22;10.52;;;6.00;;
52668;SDS011;59898;52.786;6.892;2022-08-19T10:38:44;8.10;;;6.80;;
52668;SDS011;59898;52.786;6.892;2022-08-19T10:42:07;7.53;;;6.10;;
52668;SDS011;59898;52.786;6.892;2022-08-19T10:45:30;6.80;;;5.75;;
52668;SDS011;59898;52.786;6.892;2022-08-19T10:48:51;8.82;;;7.20;;
52668;SDS011;59898;52.786;6.892;2022-08-19T10:52:12;8.53;;;6.83;;
52668;SDS011;59898;52.786;6.892;2022-08-19T10:55:51;9.77;;;6.63;;
52668;SDS011;59898;52.786;6.892;2022-08-19T10:59:30;10.15;;;6.75;;
52668;SDS011;59898;52.786;6.892;2022-08-19T11:02:52;8.67;;;6.33;;
52668;SDS011;59898;52.786;6.892;2022-08-19T11:06:13;9.50;;;6.05;;
52668;SDS011;59898;52.786;6.892;2022-08-19T11:09:37;7.38;;;6.53;;
52668;SDS011;59898;52.786;6.892;2022-08-19T11:12:59;9.15;;;6.15;;
52668;SDS011;59898;52.786;6.892;2022-08-19T11:16:24;10.15;;;6.20;;
52668;SDS011;59898;52.786;6.892;2022-08-19T11:19:47;9.55;;;7.38;;
52668;SDS011;59898;52.786;6.892;2022-08-19T11:23:08;7.40;;;6.70;;
52668;SDS011;59898;52.786;6.892;2022-08-19T11:26:30;6.85;;;6.15;;
52668;SDS011;59898;52.786;6.892;2022-08-19T11:29:52;8.15;;;6.88;;
52668;SDS011;59898;52.786;6.892;2022-08-19T11:33:12;9.05;;;7.90;;
52668;SDS011;59898;52.786;6.892;2022-08-19T11:36:34;8.18;;;6.40;;
52668;SDS011;59898;52.786;6.892;2022-08-19T11:39:58;8.18;;;5.93;;
52668;SDS011;59898;52.786;6.892;2022-08-19T11:43:20;6.47;;;5.88;;
52668;SDS011;59898;52.786;6.892;2022-08-19T11:46:41;7.30;;;6.57;;
52668;SDS011;59898;52.786;6.892;2022-08-19T11:50:06;8.70;;;7.80;;
52668;SDS011;59898;52.786;6.892;2022-08-19T11:53:29;8.65;;;7.82;;
52668;SDS011;59898;52.786;6.892;2022-08-19T11:56:50;7.05;;;6.35;;
52668;SDS011;59898;52.786;6.892;2022-08-19T12:00:11;8.93;;;7.10;;
52668;SDS011;59898;52.786;6.892;2022-08-19T12:03:33;7.28;;;6.55;;
52668;SDS011;59898;52.786;6.892;2022-08-19T12:06:54;7.95;;;7.13;;
52668;SDS011;59898;52.786;6.892;2022-08-19T12:10:14;7.38;;;6.65;;
52668;SDS011;59898;52.786;6.892;2022-08-19T12:13:44;8.90;;;5.57;;
52668;SDS011;59898;52.786;6.892;2022-08-19T12:17:07;6.25;;;5.60;;
52668;SDS011;59898;52.786;6.892;2022-08-19T12:20:29;8.70;;;7.32;;
52668;SDS011;59898;52.786;6.892;2022-08-19T12:23:49;8.30;;;7.05;;
52668;SDS011;59898;52.786;6.892;2022-08-19T12:27:11;8.63;;;7.73;;
52668;SDS011;59898;52.786;6.892;2022-08-19T12:30:32;10.43;;;7.38;;
52668;SDS011;59898;52.786;6.892;2022-08-19T12:33:52;8.90;;;7.47;;
52668;SDS011;59898;52.786;6.892;2022-08-19T12:37:13;9.30;;;7.25;;
52668;SDS011;59898;52.786;6.892;2022-08-19T12:40:34;8.18;;;7.38;;
52668;SDS011;59898;52.786;6.892;2022-08-19T12:43:55;9.10;;;7.03;;
52668;SDS011;59898;52.786;6.892;2022-08-19T12:47:15;9.82;;;7.45;;
52668;SDS011;59898;52.786;6.892;2022-08-19T12:50:39;11.85;;;8.38;;
52668;SDS011;59898;52.786;6.892;2022-08-19T12:54:00;10.38;;;7.80;;
52668;SDS011;59898;52.786;6.892;2022-08-19T12:57:23;10.88;;;8.10;;
52668;SDS011;59898;52.786;6.892;2022-08-19T13:00:45;8.80;;;7.75;;
52668;SDS011;59898;52.786;6.892;2022-08-19T13:04:06;10.25;;;7.78;;
52668;SDS011;59898;52.786;6.892;2022-08-19T13:07:27;9.30;;;7.63;;
52668;SDS011;59898;52.786;6.892;2022-08-19T13:10:48;8.40;;;7.53;;
52668;SDS011;59898;52.786;6.892;2022-08-19T13:14:09;9.15;;;7.32;;
52668;SDS011;59898;52.786;6.892;2022-08-19T13:17:32;8.80;;;7.88;;
52668;SDS011;59898;52.786;6.892;2022-08-19T13:20:53;8.13;;;7.32;;
52668;SDS011;59898;52.786;6.892;2022-08-19T13:24:14;8.55;;;6.95;;
52668;SDS011;59898;52.786;6.892;2022-08-19T13:27:35;8.27;;;6.63;;
52668;SDS011;59898;52.786;6.892;2022-08-19T13:30:56;7.22;;;6.47;;
52668;SDS011;59898;52.786;6.892;2022-08-19T13:34:36;6.32;;;5.72;;
52668;SDS011;59898;52.786;6.892;2022-08-19T13:37:57;7.28;;;6.35;;
52668;SDS011;59898;52.786;6.892;2022-08-19T13:41:17;7.72;;;6.15;;
52668;SDS011;59898;52.786;6.892;2022-08-19T13:44:39;7.83;;;5.67;;
52668;SDS011;59898;52.786;6.892;2022-08-19T13:48:00;7.15;;;5.47;;
52668;SDS011;59898;52.786;6.892;2022-08-19T13:51:26;9.60;;;6.10;;
52668;SDS011;59898;52.786;6.892;2022-08-19T13:54:47;6.18;;;5.57;;
52668;SDS011;59898;52.786;6.892;2022-08-19T13:58:08;7.82;;;6.38;;
52668;SDS011;59898;52.786;6.892;2022-08-19T14:01:30;7.45;;;5.70;;
52668;SDS011;59898;52.786;6.892;2022-08-19T14:04:51;6.82;;;6.13;;
52668;SDS011;59898;52.786;6.892;2022-08-19T14:08:12;8.32;;;6.72;;
52668;SDS011;59898;52.786;6.892;2022-08-19T14:11:34;9.52;;;6.90;;
52668;SDS011;59898;52.786;6.892;2022-08-19T14:14:54;6.65;;;5.95;;
52668;SDS011;59898;52.786;6.892;2022-08-19T14:18:15;7.07;;;5.78;;
52668;SDS011;59898;52.786;6.892;2022-08-19T14:21:37;9.30;;;5.43;;
52668;SDS011;59898;52.786;6.892;2022-08-19T14:24:59;6.67;;;5.23;;
52668;SDS011;59898;52.786;6.892;2022-08-19T14:28:19;11.45;;;6.90;;
52668;SDS011;59898;52.786;6.892;2022-08-19T14:31:40;7.57;;;6.38;;
52668;SDS011;59898;52.786;6.892;2022-08-19T14:35:02;8.15;;;6.45;;
52668;SDS011;59898;52.786;6.892;2022-08-19T14:38:24;10.30;;;6.82;;
52668;SDS011;59898;52.786;6.892;2022-08-19T14:41:45;6.65;;;6.05;;
52668;SDS011;59898;52.786;6.892;2022-08-19T14:45:06;7.88;;;6.18;;
52668;SDS011;59898;52.786;6.892;2022-08-19T14:48:27;6.53;;;5.93;;
52668;SDS011;59898;52.786;6.892;2022-08-19T14:51:48;7.30;;;6.25;;
52668;SDS011;59898;52.786;6.892;2022-08-19T14:55:08;8.65;;;7.25;;
52668;SDS011;59898;52.786;6.892;2022-08-19T14:58:29;7.85;;;5.95;;
52668;SDS011;59898;52.786;6.892;2022-08-19T15:01:50;7.63;;;6.00;;
52668;SDS011;59898;52.786;6.892;2022-08-19T15:05:11;7.38;;;6.00;;
52668;SDS011;59898;52.786;6.892;2022-08-19T15:08:33;6.97;;;6.10;;
52668;SDS011;59898;52.786;6.892;2022-08-19T15:11:56;7.88;;;6.10;;
52668;SDS011;59898;52.786;6.892;2022-08-19T15:18:40;11.35;;;8.70;;
52668;SDS011;59898;52.786;6.892;2022-08-19T15:22:04;12.90;;;9.20;;
52668;SDS011;59898;52.786;6.892;2022-08-19T15:25:25;11.88;;;10.50;;
52668;SDS011;59898;52.786;6.892;2022-08-19T15:28:47;13.37;;;10.23;;
52668;SDS011;59898;52.786;6.892;2022-08-19T15:32:07;14.90;;;11.13;;
52668;SDS011;59898;52.786;6.892;2022-08-19T15:35:28;14.90;;;11.25;;
52668;SDS011;59898;52.786;6.892;2022-08-19T15:38:49;14.38;;;12.32;;
52668;SDS011;59898;52.786;6.892;2022-08-19T15:42:12;15.45;;;12.63;;
52668;SDS011;59898;52.786;6.892;2022-08-19T15:45:32;15.18;;;11.90;;
52668;SDS011;59898;52.786;6.892;2022-08-19T15:48:54;16.30;;;12.88;;
52668;SDS011;59898;52.786;6.892;2022-08-19T15:52:15;13.98;;;12.23;;
52668;SDS011;59898;52.786;6.892;2022-08-19T15:55:43;18.58;;;12.05;;
52668;SDS011;59898;52.786;6.892;2022-08-19T15:59:05;17.77;;;12.40;;
52668;SDS011;59898;52.786;6.892;2022-08-19T16:02:44;27.17;;;13.90;;
52668;SDS011;59898;52.786;6.892;2022-08-19T16:06:23;13.43;;;11.88;;
52668;SDS011;59898;52.786;6.892;2022-08-19T16:09:47;13.07;;;11.27;;
52668;SDS011;59898;52.786;6.892;2022-08-19T16:13:07;14.70;;;11.65;;
52668;SDS011;59898;52.786;6.892;2022-08-19T16:16:30;15.55;;;12.00;;
52668;SDS011;59898;52.786;6.892;2022-08-19T16:19:53;14.70;;;12.02;;
52668;SDS011;59898;52.786;6.892;2022-08-19T16:23:13;14.60;;;11.07;;
52668;SDS011;59898;52.786;6.892;2022-08-19T16:26:35;16.92;;;11.82;;
52668;SDS011;59898;52.786;6.892;2022-08-19T16:29:56;16.58;;;11.18;;
52668;SDS011;59898;52.786;6.892;2022-08-19T16:33:16;16.00;;;12.07;;
52668;SDS011;59898;52.786;6.892;2022-08-19T16:36:37;15.75;;;12.13;;
52668;SDS011;59898;52.786;6.892;2022-08-19T16:40:00;15.27;;;11.40;;
52668;SDS011;59898;52.786;6.892;2022-08-19T16:43:23;15.00;;;11.40;;
52668;SDS011;59898;52.786;6.892;2022-08-19T16:46:44;14.82;;;10.75;;
52668;SDS011;59898;52.786;6.892;2022-08-19T16:50:06;14.13;;;10.70;;
52668;SDS011;59898;52.786;6.892;2022-08-19T16:53:27;16.13;;;10.48;;
52668;SDS011;59898;52.786;6.892;2022-08-19T16:56:48;13.65;;;10.98;;
52668;SDS011;59898;52.786;6.892;2022-08-19T17:00:10;11.68;;;10.40;;
52668;SDS011;59898;52.786;6.892;2022-08-19T17:03:33;14.45;;;10.23;;
52668;SDS011;59898;52.786;6.892;2022-08-19T17:06:54;13.15;;;9.82;;
52668;SDS011;59898;52.786;6.892;2022-08-19T17:10:15;11.35;;;9.55;;
52668;SDS011;59898;52.786;6.892;2022-08-19T17:13:36;10.90;;;8.85;;
52668;SDS011;59898;52.786;6.892;2022-08-19T17:16:57;12.27;;;10.23;;
52668;SDS011;59898;52.786;6.892;2022-08-19T17:20:18;12.38;;;9.43;;
52668;SDS011;59898;52.786;6.892;2022-08-19T17:23:39;12.13;;;9.30;;
52668;SDS011;59898;52.786;6.892;2022-08-19T17:27:00;9.73;;;7.90;;
52668;SDS011;59898;52.786;6.892;2022-08-19T17:30:22;11.45;;;8.50;;
52668;SDS011;59898;52.786;6.892;2022-08-19T17:33:43;9.52;;;8.23;;
52668;SDS011;59898;52.786;6.892;2022-08-19T17:37:04;13.02;;;8.00;;
52668;SDS011;59898;52.786;6.892;2022-08-19T17:40:25;10.25;;;8.10;;
52668;SDS011;59898;52.786;6.892;2022-08-19T17:43:45;8.65;;;7.05;;
52668;SDS011;59898;52.786;6.892;2022-08-19T17:47:06;9.10;;;7.20;;
52668;SDS011;59898;52.786;6.892;2022-08-19T17:50:27;10.85;;;8.10;;
52668;SDS011;59898;52.786;6.892;2022-08-19T17:53:50;11.05;;;8.10;;
52668;SDS011;59898;52.786;6.892;2022-08-19T17:57:12;18.15;;;9.30;;
52668;SDS011;59898;52.786;6.892;2022-08-19T18:00:33;9.73;;;7.65;;
52668;SDS011;59898;52.786;6.892;2022-08-19T18:03:54;10.05;;;7.70;;
52668;SDS011;59898;52.786;6.892;2022-08-19T18:07:16;7.75;;;6.97;;
52668;SDS011;59898;52.786;6.892;2022-08-19T18:10:40;12.63;;;9.93;;
52668;SDS011;59898;52.786;6.892;2022-08-19T18:14:00;16.10;;;11.77;;
52668;SDS011;59898;52.786;6.892;2022-08-19T18:17:22;15.07;;;11.95;;
52668;SDS011;59898;52.786;6.892;2022-08-19T18:20:43;15.70;;;11.95;;
52668;SDS011;59898;52.786;6.892;2022-08-19T18:24:04;14.30;;;11.38;;
52668;SDS011;59898;52.786;6.892;2022-08-19T18:27:25;13.52;;;12.00;;
52668;SDS011;59898;52.786;6.892;2022-08-19T18:30:46;17.60;;;12.85;;
52668;SDS011;59898;52.786;6.892;2022-08-19T18:34:07;15.40;;;13.07;;
52668;SDS011;59898;52.786;6.892;2022-08-19T18:37:29;13.97;;;12.13;;
52668;SDS011;59898;52.786;6.892;2022-08-19T18:40:49;16.13;;;14.27;;
52668;SDS011;59898;52.786;6.892;2022-08-19T18:44:28;18.08;;;15.60;;
52668;SDS011;59898;52.786;6.892;2022-08-19T18:48:08;19.02;;;15.25;;
52668;SDS011;59898;52.786;6.892;2022-08-19T18:51:47;18.15;;;14.73;;
52668;SDS011;59898;52.786;6.892;2022-08-19T18:55:10;40.50;;;35.75;;
52668;SDS011;59898;52.786;6.892;2022-08-19T18:58:31;23.45;;;17.73;;
52668;SDS011;59898;52.786;6.892;2022-08-19T19:01:56;16.58;;;14.63;;
52668;SDS011;59898;52.786;6.892;2022-08-19T19:05:18;14.75;;;13.07;;
52668;SDS011;59898;52.786;6.892;2022-08-19T19:08:41;16.88;;;12.30;;
52668;SDS011;59898;52.786;6.892;2022-08-19T19:12:02;13.55;;;11.68;;
52668;SDS011;59898;52.786;6.892;2022-08-19T19:15:24;11.68;;;10.23;;
52668;SDS011;59898;52.786;6.892;2022-08-19T19:18:44;13.23;;;10.40;;
52668;SDS011;59898;52.786;6.892;2022-08-19T19:22:05;13.38;;;9.85;;
52668;SDS011;59898;52.786;6.892;2022-08-19T19:25:26;11.25;;;10.20;;
52668;SDS011;59898;52.786;6.892;2022-08-19T19:28:47;10.90;;;9.55;;
52668;SDS011;59898;52.786;6.892;2022-08-19T19:32:25;11.88;;;10.40;;
52668;SDS011;59898;52.786;6.892;2022-08-19T19:35:48;15.40;;;11.23;;
52668;SDS011;59898;52.786;6.892;2022-08-19T19:39:09;13.45;;;12.07;;
52668;SDS011;59898;52.786;6.892;2022-08-19T19:42:30;10.25;;;8.73;;
52668;SDS011;59898;52.786;6.892;2022-08-19T19:45:50;13.48;;;12.02;;
52668;SDS011;59898;52.786;6.892;2022-08-19T19:49:11;13.77;;;11.00;;
52668;SDS011;59898;52.786;6.892;2022-08-19T19:52:32;9.70;;;8.73;;
52668;SDS011;59898;52.786;6.892;2022-08-19T19:55:53;12.35;;;9.05;;
52668;SDS011;59898;52.786;6.892;2022-08-19T19:59:17;11.82;;;10.40;;
52668;SDS011;59898;52.786;6.892;2022-08-19T20:02:38;9.43;;;8.48;;
52668;SDS011;59898;52.786;6.892;2022-08-19T20:05:59;8.00;;;7.18;;
52668;SDS011;59898;52.786;6.892;2022-08-19T20:09:20;6.93;;;5.65;;
52668;SDS011;59898;52.786;6.892;2022-08-19T20:12:40;7.60;;;4.68;;
52668;SDS011;59898;52.786;6.892;2022-08-19T20:16:01;5.10;;;4.60;;
52668;SDS011;59898;52.786;6.892;2022-08-19T20:19:23;6.30;;;5.03;;